Campiña-Pas de vigilance météorologique particuliére.   -   Il n'y a aucun avertissement

Nearby METAR Reports

 

LEZL - Sevilla, Spain
Distance from station: ENE 8km
Mise à jour: 17/07/2019 19:00
clair
clair
 Wind from SO
Vent: SO 19 km/h
Température: 29°C
Index de chaleur: 29°C
Point de rosée: 16°C
Humidité: 45%
Baromètre: 1013 hPa
Résumé: clair
Visibility: greater than 10 km
2019/07/17 17:00 LEZL 171700Z 23010KT 200V260 CAVOK 29/16 Q1013 NOSIG
LEMO - Morón, Spain
Distance from station: SE 43km
Mise à jour: 17/07/2019 19:00
clair
clair
 Wind from OSO
Vent: OSO 20 km/h
Température: 28°C
Index de chaleur: 28°C
Point de rosée: 15°C
Humidité: 45%
Baromètre: 1014 hPa
Résumé: clair
Visibility: greater than 10 km
2019/07/17 17:00 LEMO 171700Z 24011KT 200V260 CAVOK 28/15 Q1014 NOSIG
LEJR - Jeréz, Spain
Distance from station: S 71km
Mise à jour: 17/07/2019 19:00
clair
clair
 Wind from SSO
Vent: SSO 15 km/h
Température: 26°C
Point de rosée: 16°C
Humidité: 54%
Baromètre: 1014 hPa
Résumé: clair
Visibility: greater than 10 km
2019/07/17 17:00 LEJR 171700Z 21008KT 170V260 CAVOK 26/16 Q1014
 
LERT - Rota, Spain
Distance from station: SSO 89km
Mise à jour: 17/07/2019 19:00
Few Clouds
Few Clouds
 Wind from O
Vent: O 17 km/h
Température: 23°C
Point de rosée: 17°C
Humidité: 69%
Baromètre: 1015 hPa
Clouds: Few Clouds
Visibility: 10 km
Cloud details: Few Clouds 701 m
2019/07/17 17:00 LERT 171700Z 26009KT 230V310 9999 FEW023 23/17 Q1015 NOSIG
LEMG - Málaga, Spain
Distance from station: ESE 157km
Mise à jour: 17/07/2019 19:00
Few Clouds
Few Clouds
 Wind from NE
Vent: NE 20 km/h
Température: 28°C
Index de chaleur: 28°C
Point de rosée: 16°C
Humidité: 48%
Baromètre: 1012 hPa
Clouds: Few Clouds
Visibility: 10 km
Cloud details: Few Clouds 1219 m
2019/07/17 17:00 LEMG 171700Z 05011KT 020V080 9999 FEW040 28/16 Q1012 NOSIG
LEBA - Córdoba, Spain
Distance from station: ENE 115km
Mise à jour: 17/07/2019 19:00
clair
clair
 Wind from OSO
Vent: OSO 17 km/h
Température: 31°C
Point de rosée: 14°C
Humidité: 35%
Baromètre: 1012 hPa
Résumé: clair
Visibility: greater than 10 km
2019/07/17 17:00 LEBA 171700Z 25009KT 210V290 CAVOK 31/14 Q1012
 
LEGR - Granada, Spain
Distance from station: E 198km
Mise à jour: 17/07/2019 19:00
Few Clouds
Few Clouds
 Wind from O
Vent: O 24 km/h
Température: 31°C
Point de rosée: 13°C
Humidité: 33%
Baromètre: 1014 hPa
Clouds: Few Clouds
Visibility: 10 km
Cloud details: Few Clouds 1829 m
2019/07/17 17:00 LEGR 171700Z 28013KT 250V310 9999 FEW060 31/13 Q1014
LEAM - Almería, Spain
Distance from station: E 326km
Mise à jour: 17/07/2019 19:00
Few Clouds
Few Clouds
 Wind from SSO
Vent: SSO 13 km/h
Température: 25°C
Point de rosée: 21°C
Humidité: 79%
Baromètre: 1012 hPa
Clouds: Few Clouds
Visibility: 10 km
Cloud details: Few Clouds 457 m
2019/07/17 17:00 LEAM 171700Z 20007KT 170V240 9999 FEW015 25/21 Q1012
LEMD - Madrid/Barajas, Spain
Distance from station: NNE 402km
Mise à jour: 17/07/2019 19:00
clair
clair
 Wind from ONO
Vent: ONO 6 km/h
Température: 34°C
Point de rosée: 5°C
Humidité: 16%
Baromètre: 1013 hPa
Résumé: clair
Visibility: greater than 10 km
2019/07/17 17:00 LEMD 171700Z 29003KT CAVOK 34/05 Q1013 NOSIG
 
LEVD - Valladolid, Spain
Distance from station: N 492km
Mise à jour: 17/07/2019 19:00
clair
clair
 Wind from NE
Vent: NE 22 km/h
Température: 30°C
Point de rosée: 12°C
Humidité: 33%
Baromètre: 1015 hPa
Résumé: clair
Visibility: greater than 10 km
2019/07/17 17:00 LEVD 171700Z 04012KT 360V080 CAVOK 30/12 Q1015
LEBL - Barcelona, Spain
Distance from station: NE 816km
Mise à jour: 17/07/2019 19:00
Few Clouds
Few Clouds
 Wind from SO
Vent: SO 20 km/h
Température: 27°C
Index de chaleur: 29°C
Point de rosée: 21°C
Humidité: 70%
Baromètre: 1013 hPa
Clouds: Few Clouds
Visibility: 10 km
Cloud details: Few Clouds 853 m
2019/07/17 17:00 LEBL 171700Z 22011KT 9999 FEW028 27/21 Q1013 NOSIG
LEVC - Valencia, Spain
Distance from station: ENE 535km
Mise à jour: 17/07/2019 19:00
Few Clouds
Few Clouds
 Wind from ESE
Vent: ESE 17 km/h
Température: 29°C
Index de chaleur: 29°C
Point de rosée: 17°C
Humidité: 48%
Baromètre: 1012 hPa
Clouds: Few Clouds
Visibility: 10 km
Cloud details: Few Clouds 914 m
2019/07/17 17:00 LEVC 171700Z 11009KT 070V140 9999 FEW030 29/17 Q1012 NOSIG